createdAt,value
2023-03-21T00:00:57.656Z,0.00
2023-03-21T00:01:56.863Z,0.00
2023-03-21T00:02:56.823Z,0.00
2023-03-21T00:03:56.858Z,0.00
2023-03-21T00:05:05.893Z,0.00
2023-03-21T00:05:57.792Z,0.00
2023-03-21T00:06:56.815Z,0.00
2023-03-21T00:07:56.792Z,0.00
2023-03-21T00:08:56.756Z,0.00
2023-03-21T00:10:57.738Z,0.00
2023-03-21T00:11:56.730Z,0.00
2023-03-21T00:12:56.699Z,0.00
2023-03-21T00:13:56.683Z,0.00
2023-03-21T00:14:56.675Z,0.00
2023-03-21T00:16:08.594Z,0.00
2023-03-21T00:16:57.671Z,0.00
2023-03-21T00:17:57.573Z,0.00
2023-03-21T00:18:56.622Z,0.00
2023-03-21T00:19:56.670Z,0.00
2023-03-21T00:21:15.751Z,0.00
2023-03-21T00:22:07.601Z,0.00
2023-03-21T00:22:57.579Z,0.00
2023-03-21T00:23:56.561Z,0.00
2023-03-21T00:24:56.547Z,0.00
2023-03-21T00:25:56.511Z,0.00
2023-03-21T00:27:05.991Z,0.00
2023-03-21T00:28:07.782Z,0.00
2023-03-21T00:28:57.490Z,0.00
2023-03-21T00:29:56.481Z,0.00
2023-03-21T00:30:56.459Z,0.00
2023-03-21T00:31:56.467Z,0.00
2023-03-21T00:32:57.031Z,0.00
2023-03-21T00:33:56.417Z,0.00
2023-03-21T00:35:16.388Z,0.00
2023-03-21T00:36:04.946Z,0.00
2023-03-21T00:36:57.444Z,0.00
2023-03-21T00:37:56.378Z,0.00
2023-03-21T00:38:56.354Z,0.00
2023-03-21T00:39:56.423Z,0.00
2023-03-21T00:40:58.212Z,0.00
2023-03-21T00:41:56.386Z,0.00
2023-03-21T00:42:56.312Z,0.00
2023-03-21T00:43:56.286Z,0.00
2023-03-21T00:44:56.275Z,0.00
2023-03-21T00:45:56.257Z,0.00
2023-03-21T00:47:06.620Z,0.00
2023-03-21T00:47:57.373Z,0.00
2023-03-21T00:48:56.228Z,0.00
2023-03-21T00:49:56.258Z,0.00
2023-03-21T00:50:56.203Z,0.00
2023-03-21T00:51:59.519Z,0.00
2023-03-21T00:52:57.179Z,0.00
2023-03-21T00:53:56.209Z,0.00
2023-03-21T00:54:56.148Z,0.00
2023-03-21T00:55:56.127Z,0.00
2023-03-21T00:56:56.131Z,0.00
2023-03-21T00:58:01.851Z,0.00
2023-03-21T00:58:57.118Z,0.00
2023-03-21T00:59:56.084Z,0.00
2023-03-21T01:00:56.096Z,0.00
2023-03-21T01:01:56.095Z,0.00
2023-03-21T01:03:02.793Z,0.00
2023-03-21T01:03:57.056Z,0.00
2023-03-21T01:04:56.016Z,0.00
2023-03-21T01:05:55.995Z,0.00
2023-03-21T01:06:56.019Z,0.00
2023-03-21T01:07:56.003Z,0.00
2023-03-21T01:08:55.966Z,0.00
2023-03-21T01:09:55.947Z,0.00
2023-03-21T01:10:55.945Z,0.00
2023-03-21T01:11:55.957Z,0.00
2023-03-21T01:12:55.916Z,0.00
2023-03-21T01:14:04.255Z,0.00
2023-03-21T01:14:56.885Z,0.00
2023-03-21T01:15:55.933Z,0.00
2023-03-21T01:16:55.903Z,0.00
2023-03-21T01:17:55.843Z,0.00
2023-03-21T01:18:55.852Z,0.00
2023-03-21T01:19:55.833Z,0.00
2023-03-21T01:20:55.809Z,0.00
2023-03-21T01:21:55.825Z,0.00
2023-03-21T01:22:55.782Z,0.00
2023-03-21T01:23:55.883Z,0.00
2023-03-21T01:25:05.709Z,0.00
2023-03-21T01:25:56.742Z,0.00
2023-03-21T01:26:55.789Z,0.00
2023-03-21T01:27:55.714Z,0.00
2023-03-21T01:28:55.712Z,0.00
2023-03-21T01:29:55.698Z,0.00
2023-03-21T01:30:55.672Z,0.00
2023-03-21T01:31:55.776Z,0.00
2023-03-21T01:32:55.652Z,0.00
2023-03-21T01:33:55.632Z,0.00
2023-03-21T01:34:55.645Z,0.00
2023-03-21T01:36:06.553Z,0.00
2023-03-21T01:36:56.668Z,0.00
2023-03-21T01:37:55.587Z,0.00
2023-03-21T01:38:55.599Z,0.00
2023-03-21T01:39:55.571Z,0.00
2023-03-21T01:40:55.554Z,0.00
2023-03-21T01:41:55.632Z,0.00
2023-03-21T01:42:55.527Z,0.00
2023-03-21T01:43:55.571Z,0.00
2023-03-21T01:44:55.525Z,0.00
2023-03-21T01:45:55.542Z,0.00
2023-03-21T01:47:12.546Z,0.00
2023-03-21T01:47:56.501Z,0.00
2023-03-21T01:48:55.454Z,0.00
2023-03-21T01:49:55.487Z,0.00
2023-03-21T01:50:55.433Z,0.00
2023-03-21T01:51:58.674Z,0.00
2023-03-21T01:52:56.390Z,0.00
2023-03-21T01:53:55.400Z,0.00
2023-03-21T01:54:55.388Z,0.00
2023-03-21T01:55:55.356Z,0.00
2023-03-21T01:56:55.341Z,0.00
2023-03-21T01:58:05.436Z,0.00
2023-03-21T01:58:56.330Z,0.00
2023-03-21T01:59:55.334Z,0.00
2023-03-21T02:00:55.425Z,0.00
2023-03-21T02:01:55.274Z,0.00
2023-03-21T02:02:58.129Z,0.00
2023-03-21T02:03:56.259Z,0.00
2023-03-21T02:04:55.250Z,0.00
2023-03-21T02:05:55.231Z,0.00
2023-03-21T02:06:55.220Z,0.00
2023-03-21T02:07:55.219Z,0.00
2023-03-21T02:08:55.192Z,0.00
2023-03-21T02:09:55.176Z,0.00
2023-03-21T02:10:55.171Z,0.00
2023-03-21T02:11:55.156Z,0.00
2023-03-21T02:12:55.160Z,0.00
2023-03-21T02:14:05.695Z,0.00
2023-03-21T02:14:56.116Z,0.00
2023-03-21T02:15:55.097Z,0.00
2023-03-21T02:16:55.156Z,0.00
2023-03-21T02:17:55.093Z,0.00
2023-03-21T02:18:55.057Z,0.00
2023-03-21T02:19:55.055Z,0.00
2023-03-21T02:20:55.046Z,0.00
2023-03-21T02:21:55.015Z,0.00
2023-03-21T02:22:55.048Z,0.00
2023-03-21T02:23:55.013Z,0.00
2023-03-21T02:25:01.482Z,0.00
2023-03-21T02:25:55.980Z,0.00
2023-03-21T02:27:03.646Z,0.00
2023-03-21T02:27:55.988Z,0.00
2023-03-21T02:28:54.929Z,0.00
2023-03-21T02:29:54.908Z,0.00
2023-03-21T02:30:55.251Z,0.00
2023-03-21T02:31:58.811Z,0.00
2023-03-21T02:32:55.909Z,0.00
2023-03-21T02:33:54.881Z,0.00
2023-03-21T02:34:54.858Z,0.00
2023-03-21T02:35:58.647Z,0.00
2023-03-21T02:36:55.829Z,0.00
2023-03-21T02:38:00.117Z,0.00
2023-03-21T02:38:55.808Z,0.00
2023-03-21T02:39:54.795Z,0.00
2023-03-21T02:40:54.785Z,0.00
2023-03-21T02:41:54.766Z,0.00
2023-03-21T02:42:59.986Z,0.00
2023-03-21T02:43:55.731Z,0.00
2023-03-21T02:44:54.739Z,0.00
2023-03-21T02:45:54.727Z,0.00
2023-03-21T02:47:03.111Z,0.00
2023-03-21T02:47:55.767Z,0.00
2023-03-21T02:48:54.749Z,0.00
2023-03-21T02:49:54.660Z,0.00
2023-03-21T02:50:54.648Z,0.00
2023-03-21T02:51:54.903Z,0.00
2023-03-21T02:52:54.659Z,0.00
2023-03-21T02:54:21.407Z,0.00
2023-03-21T02:54:55.599Z,0.00
2023-03-21T02:55:54.590Z,0.00
2023-03-21T02:56:54.590Z,0.00
2023-03-21T02:57:54.604Z,0.00
2023-03-21T02:58:54.550Z,0.00
2023-03-21T02:59:58.584Z,0.00
2023-03-21T03:00:55.553Z,0.00
2023-03-21T03:01:54.523Z,0.00
2023-03-21T03:03:06.388Z,0.00
2023-03-21T03:03:55.597Z,0.00
2023-03-21T03:04:54.474Z,0.00
2023-03-21T03:05:54.448Z,0.00
2023-03-21T03:06:54.439Z,0.00
2023-03-21T03:07:54.451Z,0.00
2023-03-21T03:09:02.138Z,0.00
2023-03-21T03:09:55.411Z,0.00
2023-03-21T03:10:54.404Z,0.00
2023-03-21T03:11:54.378Z,0.00
2023-03-21T03:12:54.400Z,0.00
2023-03-21T03:13:54.349Z,0.00
2023-03-21T03:15:03.021Z,0.00
2023-03-21T03:15:55.346Z,0.00
2023-03-21T03:16:54.349Z,0.00
2023-03-21T03:17:54.320Z,0.00
2023-03-21T03:18:54.298Z,0.00
2023-03-21T03:19:55.019Z,0.00
2023-03-21T03:20:54.436Z,0.00
2023-03-21T03:21:54.252Z,0.00
2023-03-21T03:22:54.284Z,0.00
2023-03-21T03:23:54.233Z,0.00
2023-03-21T03:24:54.208Z,0.00
2023-03-21T03:25:54.199Z,0.00
2023-03-21T03:26:54.189Z,0.00
2023-03-21T03:27:54.229Z,0.00
2023-03-21T03:28:54.167Z,0.00
2023-03-21T03:29:54.156Z,0.00
2023-03-21T03:31:08.210Z,0.00
2023-03-21T03:31:55.125Z,0.00
2023-03-21T03:32:54.144Z,0.00
2023-03-21T03:33:54.086Z,0.00
2023-03-21T03:34:54.087Z,0.00
2023-03-21T03:36:04.941Z,0.00
2023-03-21T03:36:55.108Z,0.00
2023-03-21T03:37:54.078Z,0.00
2023-03-21T03:38:54.034Z,0.00
2023-03-21T03:39:54.027Z,0.00
2023-03-21T03:40:54.014Z,0.00
2023-03-21T03:42:10.181Z,0.00
2023-03-21T03:42:55.016Z,0.00
2023-03-21T03:43:53.990Z,0.00
2023-03-21T03:44:53.949Z,0.00
2023-03-21T03:45:53.940Z,0.00
2023-03-21T03:46:54.004Z,0.00
2023-03-21T03:47:57.607Z,0.00
2023-03-21T03:48:53.892Z,0.00
2023-03-21T03:49:53.897Z,0.00
2023-03-21T03:50:53.874Z,0.00
2023-03-21T03:51:53.880Z,0.00
2023-03-21T03:52:57.308Z,0.00
2023-03-21T03:53:53.868Z,0.00
2023-03-21T03:54:53.871Z,0.00
2023-03-21T03:55:53.848Z,0.00
2023-03-21T03:56:53.792Z,0.00
2023-03-21T03:57:53.885Z,0.00
2023-03-21T03:58:53.792Z,0.00
2023-03-21T03:59:53.764Z,0.00
2023-03-21T04:00:53.761Z,0.00
2023-03-21T04:01:53.802Z,0.00
2023-03-21T04:02:53.792Z,0.00
2023-03-21T04:04:06.762Z,0.00
2023-03-21T04:04:54.685Z,0.00
2023-03-21T04:05:53.692Z,0.00
2023-03-21T04:06:53.667Z,0.00
2023-03-21T04:07:53.663Z,0.00
2023-03-21T04:08:53.676Z,0.00
2023-03-21T04:09:53.646Z,0.00
2023-03-21T04:10:53.618Z,0.00
2023-03-21T04:11:53.643Z,0.00
2023-03-21T04:12:53.586Z,0.00
2023-03-21T04:13:53.617Z,0.00
2023-03-21T04:14:56.931Z,0.00
2023-03-21T04:15:54.580Z,0.00
2023-03-21T04:16:53.537Z,0.00
2023-03-21T04:17:53.539Z,0.00
2023-03-21T04:18:53.537Z,0.00
2023-03-21T04:20:00.010Z,0.00
2023-03-21T04:20:54.488Z,0.00
2023-03-21T04:21:53.486Z,0.00
2023-03-21T04:22:53.462Z,0.00
2023-03-21T04:23:53.476Z,0.00
2023-03-21T04:24:53.441Z,0.00
2023-03-21T04:25:57.080Z,0.00
2023-03-21T04:26:53.419Z,0.00
2023-03-21T04:27:53.406Z,0.00
2023-03-21T04:28:53.444Z,0.00
2023-03-21T04:29:54.316Z,0.00
2023-03-21T04:31:02.230Z,0.00
2023-03-21T04:31:54.412Z,0.00
2023-03-21T04:32:53.335Z,0.00
2023-03-21T04:33:53.358Z,0.00
2023-03-21T04:34:53.318Z,0.00
2023-03-21T04:35:53.331Z,0.00
2023-03-21T04:36:53.296Z,0.00
2023-03-21T04:37:53.278Z,0.00
2023-03-21T04:38:53.563Z,0.00
2023-03-21T04:39:53.245Z,0.00
2023-03-21T04:40:53.260Z,0.00
2023-03-21T04:41:53.223Z,0.00
2023-03-21T04:42:53.194Z,0.00
2023-03-21T04:43:54.345Z,0.00
2023-03-21T04:44:53.173Z,0.00
2023-03-21T04:45:53.207Z,0.00
2023-03-21T04:46:53.155Z,0.00
2023-03-21T04:47:53.217Z,0.00
2023-03-21T04:48:53.305Z,0.00
2023-03-21T04:49:53.124Z,0.00
2023-03-21T04:50:53.096Z,0.00
2023-03-21T04:51:54.062Z,0.00
2023-03-21T04:52:53.089Z,0.00
2023-03-21T04:53:53.098Z,0.00
2023-03-21T04:54:53.047Z,0.00
2023-03-21T04:55:55.339Z,0.00
2023-03-21T04:56:52.997Z,1.00
2023-03-21T04:57:53.018Z,0.00
2023-03-21T04:58:53.071Z,1.00
2023-03-21T04:59:52.938Z,1.00
2023-03-21T05:00:53.230Z,0.00
2023-03-21T05:01:52.970Z,0.00
2023-03-21T05:02:52.896Z,2.00
2023-03-21T05:03:52.985Z,1.00
2023-03-21T05:04:52.885Z,1.00
2023-03-21T05:05:52.909Z,0.00
2023-03-21T05:06:52.850Z,1.00
2023-03-21T05:07:52.838Z,1.00
2023-03-21T05:08:52.838Z,4.00
2023-03-21T05:09:52.807Z,3.00
2023-03-21T05:10:52.790Z,2.00
2023-03-21T05:11:52.778Z,1.00
2023-03-21T05:12:52.759Z,3.00
2023-03-21T05:13:52.775Z,4.00
2023-03-21T05:14:52.729Z,6.00
2023-03-21T05:15:52.746Z,6.00
2023-03-21T05:16:52.735Z,7.00
2023-03-21T05:17:52.709Z,8.00
2023-03-21T05:18:52.761Z,12.00
2023-03-21T05:19:52.675Z,9.00
2023-03-21T05:20:52.769Z,11.00
2023-03-21T05:21:52.645Z,12.00
2023-03-21T05:22:52.657Z,17.00
2023-03-21T05:23:52.645Z,16.00
2023-03-21T05:24:52.662Z,19.00
2023-03-21T05:25:52.600Z,19.00
2023-03-21T05:26:52.741Z,21.00
2023-03-21T05:27:53.345Z,21.00
2023-03-21T05:28:52.579Z,17.00
2023-03-21T05:29:52.547Z,26.00
2023-03-21T05:30:52.584Z,29.00
2023-03-21T05:31:52.626Z,29.00
2023-03-21T05:32:52.601Z,37.00
2023-03-21T05:33:52.606Z,44.00
2023-03-21T05:34:52.555Z,43.00
2023-03-21T05:35:52.630Z,43.00
2023-03-21T05:36:52.454Z,46.00
2023-03-21T05:37:52.458Z,53.00
2023-03-21T05:38:52.448Z,54.00
2023-03-21T05:39:52.408Z,63.00
2023-03-21T05:40:52.410Z,82.00
2023-03-21T05:41:52.386Z,87.00
2023-03-21T05:42:52.377Z,90.00
2023-03-21T05:43:52.396Z,108.00
2023-03-21T05:44:52.367Z,132.00
2023-03-21T05:45:52.358Z,173.00
2023-03-21T05:46:52.318Z,191.00
2023-03-21T05:47:52.364Z,195.00
2023-03-21T05:48:52.328Z,187.00
2023-03-21T05:49:52.282Z,219.00
2023-03-21T05:50:52.272Z,238.00
2023-03-21T05:51:52.264Z,237.00
2023-03-21T05:52:52.248Z,227.00
2023-03-21T05:53:52.266Z,254.00
2023-03-21T05:54:52.314Z,277.00
2023-03-21T05:55:52.218Z,269.00
2023-03-21T05:56:52.189Z,261.00
2023-03-21T05:57:52.193Z,249.00
2023-03-21T05:58:52.244Z,257.00
2023-03-21T05:59:52.218Z,264.00
2023-03-21T06:00:52.138Z,272.00
2023-03-21T06:01:52.127Z,302.00
2023-03-21T06:02:52.147Z,307.00
2023-03-21T06:03:52.194Z,318.00
2023-03-21T06:04:52.108Z,320.00
2023-03-21T06:05:52.078Z,330.00
2023-03-21T06:06:52.066Z,329.00
2023-03-21T06:07:52.055Z,362.00
2023-03-21T06:08:52.077Z,403.00
2023-03-21T06:09:52.033Z,416.00
2023-03-21T06:10:52.006Z,425.00
2023-03-21T06:11:52.007Z,436.00
2023-03-21T06:12:52.013Z,465.00
2023-03-21T06:13:52.034Z,469.00
2023-03-21T06:14:52.049Z,487.00
2023-03-21T06:15:51.994Z,479.00
2023-03-21T06:16:51.941Z,448.00
2023-03-21T06:17:51.915Z,427.00
2023-03-21T06:18:51.933Z,423.00
2023-03-21T06:19:51.912Z,433.00
2023-03-21T06:20:51.886Z,454.00
2023-03-21T06:21:51.867Z,467.00
2023-03-21T06:22:51.859Z,485.00
2023-03-21T06:23:52.814Z,480.00
2023-03-21T06:24:51.843Z,485.00
2023-03-21T06:25:51.820Z,496.00
2023-03-21T06:26:51.814Z,497.00
2023-03-21T06:27:51.804Z,515.00
2023-03-21T06:28:51.809Z,561.00
2023-03-21T06:29:51.784Z,599.00
2023-03-21T06:30:51.757Z,630.00
2023-03-21T06:31:51.763Z,652.00
2023-03-21T06:32:51.726Z,659.00
2023-03-21T06:33:51.818Z,656.00
2023-03-21T06:34:51.704Z,659.00
2023-03-21T06:35:51.779Z,672.00
2023-03-21T06:36:51.674Z,670.00
2023-03-21T06:37:51.664Z,647.00
2023-03-21T06:38:51.643Z,642.00
2023-03-21T06:39:51.673Z,654.00
2023-03-21T06:40:51.633Z,678.00
2023-03-21T06:41:51.614Z,688.00
2023-03-21T06:42:51.595Z,699.00
2023-03-21T06:43:51.598Z,702.00
2023-03-21T06:44:51.593Z,690.00
2023-03-21T06:45:51.584Z,710.00
2023-03-21T06:46:51.619Z,724.00
2023-03-21T06:47:51.602Z,764.00
2023-03-21T06:48:51.531Z,795.00
2023-03-21T06:49:51.543Z,795.00
2023-03-21T06:50:51.493Z,814.00
2023-03-21T06:51:51.495Z,845.00
2023-03-21T06:52:51.481Z,879.00
2023-03-21T06:53:51.452Z,884.00
2023-03-21T06:54:51.479Z,867.00
2023-03-21T06:55:51.442Z,807.00
2023-03-21T06:56:51.432Z,757.00
2023-03-21T06:57:51.402Z,750.00
2023-03-21T06:58:51.396Z,768.00
2023-03-21T06:59:51.409Z,795.00
2023-03-21T07:00:51.408Z,845.00
2023-03-21T07:01:51.375Z,882.00
2023-03-21T07:02:51.467Z,896.00
2023-03-21T07:03:51.335Z,904.00
2023-03-21T07:04:51.342Z,933.00
2023-03-21T07:05:52.349Z,979.00
2023-03-21T07:06:51.572Z,1027.00
2023-03-21T07:07:51.463Z,1086.00
2023-03-21T07:08:51.261Z,1158.00
2023-03-21T07:09:51.287Z,1225.00
2023-03-21T07:10:51.239Z,1291.00
2023-03-21T07:11:51.233Z,1362.00
2023-03-21T07:12:51.212Z,1406.00
2023-03-21T07:13:51.202Z,1456.00
2023-03-21T07:14:51.216Z,1506.00
2023-03-21T07:15:51.172Z,1547.00
2023-03-21T07:16:51.192Z,1616.00
2023-03-21T07:17:51.153Z,1652.00
2023-03-21T07:18:51.140Z,1682.00
2023-03-21T07:19:51.149Z,1705.00
2023-03-21T07:20:51.203Z,1706.00
2023-03-21T07:21:51.093Z,1721.00
2023-03-21T07:22:51.095Z,1753.00
2023-03-21T07:23:51.096Z,1786.00
2023-03-21T07:25:04.015Z,1808.00
2023-03-21T07:25:52.098Z,1829.00
2023-03-21T07:26:51.041Z,1913.00
2023-03-21T07:27:51.108Z,1887.00
2023-03-21T07:28:51.057Z,1917.00
2023-03-21T07:29:51.021Z,1934.00
2023-03-21T07:30:50.973Z,1865.00
2023-03-21T07:31:51.010Z,1866.00
2023-03-21T07:32:50.955Z,1833.00
2023-03-21T07:33:50.945Z,1811.00
2023-03-21T07:34:50.967Z,1826.00
2023-03-21T07:35:50.956Z,1879.00
2023-03-21T07:36:50.895Z,1947.00
2023-03-21T07:37:50.891Z,2048.00
2023-03-21T07:38:50.898Z,2100.00
2023-03-21T07:39:50.901Z,2137.00
2023-03-21T07:40:50.849Z,2181.00
2023-03-21T07:41:50.845Z,2183.00
2023-03-21T07:42:50.846Z,2207.00
2023-03-21T07:43:50.820Z,2228.00
2023-03-21T07:44:50.819Z,2253.00
2023-03-21T07:45:50.813Z,2261.00
2023-03-21T07:46:50.770Z,2265.00
2023-03-21T07:47:50.796Z,2314.00
2023-03-21T07:48:50.748Z,2332.00
2023-03-21T07:49:50.760Z,2378.00
2023-03-21T07:50:50.781Z,2405.00
2023-03-21T07:51:50.713Z,2430.00
2023-03-21T07:52:50.688Z,2479.00
2023-03-21T07:53:50.677Z,2516.00
2023-03-21T07:54:50.681Z,2518.00
2023-03-21T07:55:50.660Z,2537.00
2023-03-21T07:56:50.643Z,2557.00
2023-03-21T07:57:50.632Z,2561.00
2023-03-21T07:58:50.622Z,2576.00
2023-03-21T07:59:50.628Z,2559.00
2023-03-21T08:00:51.389Z,2553.00
2023-03-21T08:01:50.605Z,2570.00
2023-03-21T08:02:50.558Z,2603.00
2023-03-21T08:03:50.571Z,2618.00
2023-03-21T08:04:50.561Z,2626.00
2023-03-21T08:05:50.516Z,2616.00
2023-03-21T08:06:50.522Z,2628.00
2023-03-21T08:07:50.499Z,2689.00
2023-03-21T08:08:50.491Z,2677.00
2023-03-21T08:09:50.486Z,2644.00
2023-03-21T08:10:50.465Z,2605.00
2023-03-21T08:11:50.453Z,2577.00
2023-03-21T08:12:50.453Z,2557.00
2023-03-21T08:13:50.433Z,2582.00
2023-03-21T08:14:50.481Z,2593.00
2023-03-21T08:15:50.385Z,2645.00
2023-03-21T08:16:50.409Z,2687.00
2023-03-21T08:17:50.351Z,2758.00
2023-03-21T08:18:50.356Z,2826.00
2023-03-21T08:19:50.375Z,2882.00
2023-03-21T08:20:50.327Z,2918.00
2023-03-21T08:21:50.305Z,3004.00
2023-03-21T08:22:50.300Z,3045.00
2023-03-21T08:23:50.295Z,3090.00
2023-03-21T08:24:50.298Z,3085.00
2023-03-21T08:25:50.258Z,3273.00
2023-03-21T08:26:50.239Z,3272.00
2023-03-21T08:27:50.241Z,3228.00
2023-03-21T08:28:50.224Z,3250.00
2023-03-21T08:29:50.233Z,3225.00
2023-03-21T08:30:50.253Z,3198.00
2023-03-21T08:31:50.168Z,3205.00
2023-03-21T08:32:50.173Z,3206.00
2023-03-21T08:33:50.167Z,3186.00
2023-03-21T08:34:50.166Z,3152.00
2023-03-21T08:35:50.157Z,3092.00
2023-03-21T08:36:50.119Z,3054.00
2023-03-21T08:37:50.114Z,3152.00
2023-03-21T08:38:50.102Z,3191.00
2023-03-21T08:39:50.167Z,3207.00
2023-03-21T08:40:50.067Z,3244.00
2023-03-21T08:41:50.073Z,3243.00
2023-03-21T08:42:50.064Z,3199.00
2023-03-21T08:43:50.029Z,3197.00
2023-03-21T08:44:50.050Z,3088.00
2023-03-21T08:45:50.025Z,2949.00
2023-03-21T08:46:50.005Z,2886.00
2023-03-21T08:47:49.996Z,2980.00
2023-03-21T08:48:49.961Z,3029.00
2023-03-21T08:49:49.969Z,3076.00
2023-03-21T08:50:49.935Z,3027.00
2023-03-21T08:51:49.921Z,2864.00
2023-03-21T08:52:49.922Z,2782.00
2023-03-21T08:53:49.890Z,2473.00
2023-03-21T08:54:49.911Z,2138.00
2023-03-21T08:55:49.861Z,2040.00
2023-03-21T08:56:49.867Z,2056.00
2023-03-21T08:57:49.867Z,2007.00
2023-03-21T08:58:49.853Z,1980.00
2023-03-21T08:59:49.843Z,2027.00
2023-03-21T09:00:49.812Z,2043.00
2023-03-21T09:01:49.822Z,1985.00
2023-03-21T09:02:49.784Z,2009.00
2023-03-21T09:03:49.763Z,1963.00
2023-03-21T09:04:49.817Z,1847.00
2023-03-21T09:05:49.742Z,1869.00
2023-03-21T09:06:49.732Z,1858.00
2023-03-21T09:07:49.729Z,1854.00
2023-03-21T09:08:49.701Z,2001.00
2023-03-21T09:09:58.104Z,2155.00
2023-03-21T09:10:50.672Z,2112.00
2023-03-21T09:11:52.097Z,2061.00
2023-03-21T09:12:49.649Z,2192.00
2023-03-21T09:13:49.637Z,2225.00
2023-03-21T09:14:49.654Z,2281.00
2023-03-21T09:15:49.655Z,2577.00
2023-03-21T09:16:49.592Z,2697.00
2023-03-21T09:17:49.584Z,3109.00
2023-03-21T09:18:49.639Z,3346.00
2023-03-21T09:19:49.601Z,3224.00
2023-03-21T09:20:49.567Z,2961.00
2023-03-21T09:21:49.530Z,2912.00
2023-03-21T09:22:49.537Z,2344.00
2023-03-21T09:23:49.512Z,2232.00
2023-03-21T09:24:49.526Z,2318.00
2023-03-21T09:25:49.481Z,2155.00
2023-03-21T09:26:49.488Z,2013.00
2023-03-21T09:27:49.453Z,2097.00
2023-03-21T09:28:49.441Z,2123.00
2023-03-21T09:29:49.481Z,1970.00
2023-03-21T09:30:49.415Z,1905.00
2023-03-21T09:31:49.448Z,1879.00
2023-03-21T09:32:49.421Z,2181.00
2023-03-21T09:33:49.420Z,2347.00
2023-03-21T09:34:49.389Z,2583.00
2023-03-21T09:35:51.720Z,2768.00
2023-03-21T09:36:49.341Z,2748.00
2023-03-21T09:37:49.331Z,2892.00
2023-03-21T09:38:49.312Z,2975.00
2023-03-21T09:39:49.316Z,3012.00
2023-03-21T09:40:49.294Z,3001.00
2023-03-21T09:41:49.312Z,2963.00
2023-03-21T09:42:49.259Z,2658.00
2023-03-21T09:43:49.248Z,2321.00
2023-03-21T09:44:49.273Z,2303.00
2023-03-21T09:45:49.231Z,2445.00
2023-03-21T09:46:49.232Z,2709.00
2023-03-21T09:47:49.230Z,2885.00
2023-03-21T09:48:56.714Z,3091.00
2023-03-21T09:49:50.208Z,3309.00
2023-03-21T09:50:49.160Z,3177.00
2023-03-21T09:51:49.130Z,3416.00
2023-03-21T09:52:49.131Z,3222.00
2023-03-21T09:53:49.115Z,2873.00
2023-03-21T09:54:49.137Z,2815.00
2023-03-21T09:55:49.120Z,2945.00
2023-03-21T09:56:49.082Z,3216.00
2023-03-21T09:57:49.067Z,3595.00
2023-03-21T09:58:49.058Z,3507.00
2023-03-21T09:59:49.030Z,3104.00
2023-03-21T10:00:49.070Z,3074.00
2023-03-21T10:01:49.009Z,2799.00
2023-03-21T10:02:49.001Z,2434.00
2023-03-21T10:03:48.982Z,2182.00
2023-03-21T10:04:49.207Z,2188.00
2023-03-21T10:05:50.185Z,2410.00
2023-03-21T10:06:49.072Z,2396.00
2023-03-21T10:07:48.926Z,2215.00
2023-03-21T10:08:49.548Z,1961.00
2023-03-21T10:09:49.091Z,2082.00
2023-03-21T10:10:48.928Z,2348.00
2023-03-21T10:11:48.881Z,2834.00
2023-03-21T10:12:48.870Z,2884.00
2023-03-21T10:13:48.849Z,3300.00
2023-03-21T10:14:48.855Z,3539.00
2023-03-21T10:15:48.884Z,2989.00
2023-03-21T10:16:48.873Z,3127.00
2023-03-21T10:17:48.799Z,3246.00
2023-03-21T10:18:48.819Z,3137.00
2023-03-21T10:19:48.775Z,3225.00
2023-03-21T10:20:48.798Z,3151.00
2023-03-21T10:22:00.168Z,3086.00
2023-03-21T10:22:49.749Z,2824.00
2023-03-21T10:23:48.719Z,2467.00
2023-03-21T10:24:48.709Z,2328.00
2023-03-21T10:25:48.778Z,2239.00
2023-03-21T10:26:48.694Z,2493.00
2023-03-21T10:27:48.667Z,2843.00
2023-03-21T10:29:49.953Z,2894.00
2023-03-21T10:30:48.673Z,2809.00
2023-03-21T10:31:48.690Z,2773.00
2023-03-21T10:32:48.616Z,2755.00
2023-03-21T10:33:48.607Z,2651.00
2023-03-21T10:34:48.599Z,2652.00
2023-03-21T10:35:48.586Z,2616.00
2023-03-21T10:36:48.553Z,2467.00
2023-03-21T10:37:48.551Z,2449.00
2023-03-21T10:38:48.528Z,2620.00
2023-03-21T10:39:48.506Z,2840.00
2023-03-21T10:40:48.530Z,2793.00
2023-03-21T10:41:48.511Z,2673.00
2023-03-21T10:42:48.541Z,2628.00
2023-03-21T10:43:48.482Z,2549.00
2023-03-21T10:44:48.502Z,2562.00
2023-03-21T10:45:48.594Z,2523.00
2023-03-21T10:46:48.655Z,2540.00
2023-03-21T10:47:48.665Z,2639.00
2023-03-21T10:48:48.506Z,2581.00
2023-03-21T10:50:06.954Z,2586.00
2023-03-21T10:50:49.477Z,2406.00
2023-03-21T10:51:48.361Z,2427.00
2023-03-21T10:52:48.353Z,2263.00
2023-03-21T10:53:48.326Z,2408.00
2023-03-21T10:54:48.318Z,2486.00
2023-03-21T10:55:48.327Z,2317.00
2023-03-21T10:56:48.288Z,2276.00
2023-03-21T10:57:48.276Z,2536.00
2023-03-21T10:58:48.266Z,2769.00
2023-03-21T10:59:48.292Z,3071.00
2023-03-21T11:00:48.340Z,3051.00
2023-03-21T11:01:48.227Z,3330.00
2023-03-21T11:02:48.363Z,3269.00
2023-03-21T11:03:48.208Z,3229.00
2023-03-21T11:04:48.190Z,3117.00
2023-03-21T11:05:48.212Z,3055.00
2023-03-21T11:06:48.177Z,3398.00
2023-03-21T11:07:48.145Z,3893.00
2023-03-21T11:08:48.139Z,3722.00
2023-03-21T11:09:48.128Z,3792.00
2023-03-21T11:10:48.141Z,3486.00
2023-03-21T11:11:48.098Z,3561.00
2023-03-21T11:12:48.098Z,4077.00
2023-03-21T11:13:48.278Z,4110.00
2023-03-21T11:14:48.067Z,4280.00
2023-03-21T11:15:48.073Z,4228.00
2023-03-21T11:16:48.055Z,4274.00
2023-03-21T11:17:48.021Z,4258.00
2023-03-21T11:18:48.029Z,3974.00
2023-03-21T11:19:47.993Z,3639.00
2023-03-21T11:20:48.010Z,3628.00
2023-03-21T11:21:47.981Z,3694.00
2023-03-21T11:22:47.962Z,3958.00
2023-03-21T11:23:48.025Z,3958.00
2023-03-21T11:24:47.938Z,3942.00
2023-03-21T11:25:47.943Z,3706.00
2023-03-21T11:26:47.907Z,3440.00
2023-03-21T11:27:47.893Z,3636.00
2023-03-21T11:28:47.886Z,3906.00
2023-03-21T11:29:47.866Z,3877.00
2023-03-21T11:30:47.908Z,3904.00
2023-03-21T11:31:47.843Z,3654.00
2023-03-21T11:32:47.837Z,3539.00
2023-03-21T11:33:47.823Z,3394.00
2023-03-21T11:34:47.807Z,3219.00
2023-03-21T11:35:47.844Z,3159.00
2023-03-21T11:36:47.783Z,3089.00
2023-03-21T11:37:47.762Z,3067.00
2023-03-21T11:38:47.770Z,3049.00
2023-03-21T11:39:47.737Z,3083.00
2023-03-21T11:40:47.776Z,3079.00
2023-03-21T11:41:47.762Z,3101.00
2023-03-21T11:42:47.702Z,3145.00
2023-03-21T11:43:47.692Z,3182.00
2023-03-21T11:44:48.204Z,3221.00
2023-03-21T11:45:47.670Z,3228.00
2023-03-21T11:46:47.690Z,3214.00
2023-03-21T11:47:47.676Z,3049.00
2023-03-21T11:48:47.622Z,3117.00
2023-03-21T11:49:49.606Z,3191.00
2023-03-21T11:50:47.708Z,3216.00
2023-03-21T11:51:47.588Z,3115.00
2023-03-21T11:52:47.572Z,3263.00
2023-03-21T11:53:47.553Z,3158.00
2023-03-21T11:54:47.545Z,3366.00
2023-03-21T11:55:47.553Z,3331.00
2023-03-21T11:56:47.524Z,3222.00
2023-03-21T11:57:47.514Z,2911.00
2023-03-21T11:58:47.578Z,3067.00
2023-03-21T11:59:47.565Z,3085.00
2023-03-21T12:00:47.516Z,3018.00
2023-03-21T12:01:47.454Z,3047.00
2023-03-21T12:02:47.519Z,3037.00
2023-03-21T12:03:48.961Z,2992.00
2023-03-21T12:04:47.430Z,2830.00
2023-03-21T12:05:47.393Z,2642.00
2023-03-21T12:06:47.383Z,2588.00
2023-03-21T12:07:47.412Z,2307.00
2023-03-21T12:08:47.362Z,2538.00
2023-03-21T12:09:47.353Z,2856.00
2023-03-21T12:10:47.360Z,3062.00
2023-03-21T12:11:47.326Z,3110.00
2023-03-21T12:12:47.315Z,3137.00
2023-03-21T12:13:47.304Z,3047.00
2023-03-21T12:14:47.281Z,2940.00
2023-03-21T12:15:47.385Z,2797.00
2023-03-21T12:16:47.253Z,2722.00
2023-03-21T12:17:47.252Z,2724.00
2023-03-21T12:18:47.223Z,2713.00
2023-03-21T12:19:47.232Z,2699.00
2023-03-21T12:20:47.301Z,2663.00
2023-03-21T12:21:47.200Z,2573.00
2023-03-21T12:22:47.173Z,2498.00
2023-03-21T12:23:47.180Z,2447.00
2023-03-21T12:24:47.158Z,2436.00
2023-03-21T12:25:47.171Z,2426.00
2023-03-21T12:26:47.129Z,2378.00
2023-03-21T12:27:47.132Z,2330.00
2023-03-21T12:28:47.111Z,2307.00
2023-03-21T12:29:47.090Z,2340.00
2023-03-21T12:30:47.113Z,2380.00
2023-03-21T12:31:47.156Z,2370.00
2023-03-21T12:32:47.041Z,2345.00
2023-03-21T12:33:47.041Z,2336.00
2023-03-21T12:34:47.009Z,2313.00
2023-03-21T12:35:47.096Z,2270.00
2023-03-21T12:36:47.001Z,2245.00
2023-03-21T12:37:46.986Z,2166.00
2023-03-21T12:38:46.960Z,2033.00
2023-03-21T12:39:47.010Z,1913.00
2023-03-21T12:40:46.973Z,1789.00